Huntsville International Carl T Jones Field
KHSV : now visible

Airfield :











YOU CAN JOIN US ON...

 
LOGIN :

Register | Disclaimer

   EN    FR    IT 

 









Legend :    VFR   Marginal VFR   IFR   Intensive IFR   Very Intensive IFR
Visi :
Ceiling :
>= 8 km
>= 3000ft
5 to 8 km
1000 to 3000 ft
1500m to 5 km
500 to 1000 ft
800 to 1500m
200 to 500 ft
< 800m
< 200 ft
Symbols :   Thunderstorms  Fog  Heavy snow  Heavy precipitations  Wind > 20 kt






- Airport Elevation : 629 ft
- IATA code : HSV


KHSV - Huntsville International Carl T Jones Field

CURRENT METAR :
  • 231453Z 14004KT 10SM BKN100 OVC160 07/01 A3028 RMK AO2 SLP255 T00720006 53002

EXPIRED METARs :
  • 231353Z 11004KT 10SM SCT110 OVC200 05/01 A3028 RMK AO2 SLP254 T00500011
  • 231253Z 10004KT 10SM BKN100 OVC200 03/01 A3027 RMK AO2 SLP254 T00330006

TAF KHSV
Valid from the 23 at 12:00 until the 24 at 12:00 UTC


231120Z 2312/2412 VRB04KT P6SM BKN250
FM231700 19007KT P6SM BKN120
FM240000 15005KT P6SM VCSH OVC070
PROB30 2402/2408 4SM -SHRA OVC025
FM240800 14012KT 6SM -SHRA OVC025



MET'MAP, your aeronautical weather chart ! - Copyright ORBIFLY December 2007 - Disclaimer

ORBIFLY MET'MAP TEAM :

Programming & Development : Alexandra Zaïnal
Concept & original design : Baudouin d'Aumeries
Assistance for programming : Marc-Olivier Méhu
Technical & hardware support : Manuel Goepfert

Contact : metmap@orbifly.com




SOURCES & CREDITS :

   NOAA       Earth
Advisory